sensor_id;sensor_type;location;lat;lon;timestamp;P1;durP1;ratioP1;P2;durP2;ratioP2
39788;SDS011;25478;42.626;23.320;2022-07-29T00:01:29;11.32;;;8.25;;
39788;SDS011;25478;42.626;23.320;2022-07-29T00:03:55;12.10;;;7.68;;
39788;SDS011;25478;42.626;23.320;2022-07-29T00:06:20;11.45;;;8.05;;
39788;SDS011;25478;42.626;23.320;2022-07-29T00:08:46;12.82;;;8.18;;
39788;SDS011;25478;42.626;23.320;2022-07-29T00:11:12;12.00;;;8.07;;
39788;SDS011;25478;42.626;23.320;2022-07-29T00:13:37;14.38;;;9.40;;
39788;SDS011;25478;42.626;23.320;2022-07-29T00:16:04;12.35;;;8.95;;
39788;SDS011;25478;42.626;23.320;2022-07-29T00:18:29;11.75;;;9.20;;
39788;SDS011;25478;42.626;23.320;2022-07-29T00:20:55;11.98;;;8.70;;
39788;SDS011;25478;42.626;23.320;2022-07-29T00:23:21;11.68;;;8.77;;
39788;SDS011;25478;42.626;23.320;2022-07-29T00:25:46;13.63;;;9.32;;
39788;SDS011;25478;42.626;23.320;2022-07-29T00:28:12;13.02;;;9.13;;
39788;SDS011;25478;42.626;23.320;2022-07-29T00:30:37;12.00;;;8.90;;
39788;SDS011;25478;42.626;23.320;2022-07-29T00:33:03;13.60;;;8.90;;
39788;SDS011;25478;42.626;23.320;2022-07-29T00:35:28;11.82;;;8.55;;
39788;SDS011;25478;42.626;23.320;2022-07-29T00:38:19;14.55;;;9.15;;
39788;SDS011;25478;42.626;23.320;2022-07-29T00:40:46;13.48;;;9.73;;
39788;SDS011;25478;42.626;23.320;2022-07-29T00:43:12;12.23;;;9.27;;
39788;SDS011;25478;42.626;23.320;2022-07-29T00:45:39;12.32;;;9.43;;
39788;SDS011;25478;42.626;23.320;2022-07-29T00:48:06;14.23;;;9.73;;
39788;SDS011;25478;42.626;23.320;2022-07-29T00:50:34;13.35;;;9.73;;
39788;SDS011;25478;42.626;23.320;2022-07-29T00:53:00;14.25;;;9.88;;
39788;SDS011;25478;42.626;23.320;2022-07-29T00:55:27;12.82;;;9.52;;
39788;SDS011;25478;42.626;23.320;2022-07-29T00:57:54;13.32;;;10.10;;
39788;SDS011;25478;42.626;23.320;2022-07-29T01:00:22;12.90;;;9.68;;
39788;SDS011;25478;42.626;23.320;2022-07-29T01:02:49;15.60;;;9.95;;
39788;SDS011;25478;42.626;23.320;2022-07-29T01:05:16;14.07;;;10.15;;
39788;SDS011;25478;42.626;23.320;2022-07-29T01:07:44;14.02;;;10.52;;
39788;SDS011;25478;42.626;23.320;2022-07-29T01:10:12;13.27;;;10.13;;
39788;SDS011;25478;42.626;23.320;2022-07-29T01:12:39;15.27;;;10.70;;
39788;SDS011;25478;42.626;23.320;2022-07-29T01:15:07;14.02;;;10.38;;
39788;SDS011;25478;42.626;23.320;2022-07-29T01:31:43;14.55;;;10.90;;
39788;SDS011;25478;42.626;23.320;2022-07-29T01:34:11;15.40;;;10.45;;
39788;SDS011;25478;42.626;23.320;2022-07-29T01:36:43;16.77;;;11.57;;
39788;SDS011;25478;42.626;23.320;2022-07-29T01:41:55;15.55;;;11.07;;
39788;SDS011;25478;42.626;23.320;2022-07-29T01:44:31;16.83;;;11.73;;
39788;SDS011;25478;42.626;23.320;2022-07-29T01:47:02;16.00;;;11.32;;
39788;SDS011;25478;42.626;23.320;2022-07-29T01:49:39;13.60;;;10.82;;
39788;SDS011;25478;42.626;23.320;2022-07-29T01:52:13;18.20;;;11.88;;
39788;SDS011;25478;42.626;23.320;2022-07-29T01:54:49;13.20;;;10.80;;
39788;SDS011;25478;42.626;23.320;2022-07-29T01:57:19;15.63;;;11.45;;
39788;SDS011;25478;42.626;23.320;2022-07-29T01:59:51;16.50;;;11.18;;
39788;SDS011;25478;42.626;23.320;2022-07-29T02:02:19;15.27;;;10.98;;
39788;SDS011;25478;42.626;23.320;2022-07-29T02:04:47;15.65;;;11.20;;
39788;SDS011;25478;42.626;23.320;2022-07-29T02:07:15;16.42;;;11.60;;
39788;SDS011;25478;42.626;23.320;2022-07-29T02:09:45;17.08;;;11.18;;
39788;SDS011;25478;42.626;23.320;2022-07-29T02:12:12;15.63;;;11.23;;
39788;SDS011;25478;42.626;23.320;2022-07-29T02:14:43;14.85;;;11.18;;
39788;SDS011;25478;42.626;23.320;2022-07-29T02:17:12;13.30;;;10.30;;
39788;SDS011;25478;42.626;23.320;2022-07-29T02:19:38;14.45;;;10.35;;
39788;SDS011;25478;42.626;23.320;2022-07-29T02:22:06;14.77;;;11.23;;
39788;SDS011;25478;42.626;23.320;2022-07-29T02:24:34;15.05;;;10.95;;
39788;SDS011;25478;42.626;23.320;2022-07-29T02:27:03;15.90;;;11.38;;
39788;SDS011;25478;42.626;23.320;2022-07-29T02:29:29;14.90;;;10.35;;
39788;SDS011;25478;42.626;23.320;2022-07-29T02:31:56;14.32;;;10.77;;
39788;SDS011;25478;42.626;23.320;2022-07-29T02:34:23;16.20;;;10.82;;
39788;SDS011;25478;42.626;23.320;2022-07-29T02:36:50;17.23;;;11.52;;
39788;SDS011;25478;42.626;23.320;2022-07-29T02:39:16;14.90;;;11.02;;
39788;SDS011;25478;42.626;23.320;2022-07-29T02:41:44;16.98;;;11.82;;
39788;SDS011;25478;42.626;23.320;2022-07-29T02:44:15;15.60;;;10.43;;
39788;SDS011;25478;42.626;23.320;2022-07-29T02:46:45;15.88;;;11.27;;
39788;SDS011;25478;42.626;23.320;2022-07-29T02:49:27;17.13;;;11.43;;
39788;SDS011;25478;42.626;23.320;2022-07-29T02:52:03;16.35;;;11.30;;
39788;SDS011;25478;42.626;23.320;2022-07-29T02:55:07;15.93;;;11.43;;
39788;SDS011;25478;42.626;23.320;2022-07-29T02:57:33;17.02;;;12.10;;
39788;SDS011;25478;42.626;23.320;2022-07-29T03:00:06;19.00;;;11.57;;
39788;SDS011;25478;42.626;23.320;2022-07-29T03:02:36;16.42;;;12.18;;
39788;SDS011;25478;42.626;23.320;2022-07-29T03:05:06;17.67;;;11.30;;
39788;SDS011;25478;42.626;23.320;2022-07-29T03:07:34;13.95;;;10.35;;
39788;SDS011;25478;42.626;23.320;2022-07-29T03:10:03;15.75;;;11.05;;
39788;SDS011;25478;42.626;23.320;2022-07-29T03:12:30;17.05;;;11.35;;
39788;SDS011;25478;42.626;23.320;2022-07-29T03:14:56;15.00;;;10.82;;
39788;SDS011;25478;42.626;23.320;2022-07-29T03:17:22;14.52;;;10.55;;
39788;SDS011;25478;42.626;23.320;2022-07-29T03:19:48;14.68;;;10.82;;
39788;SDS011;25478;42.626;23.320;2022-07-29T03:22:14;17.50;;;12.73;;
39788;SDS011;25478;42.626;23.320;2022-07-29T03:24:40;14.13;;;10.82;;
39788;SDS011;25478;42.626;23.320;2022-07-29T03:27:05;14.63;;;10.95;;
39788;SDS011;25478;42.626;23.320;2022-07-29T03:29:31;15.73;;;11.82;;
39788;SDS011;25478;42.626;23.320;2022-07-29T03:31:57;16.55;;;11.77;;
39788;SDS011;25478;42.626;23.320;2022-07-29T03:34:22;17.20;;;11.27;;
39788;SDS011;25478;42.626;23.320;2022-07-29T03:36:48;16.92;;;12.25;;
39788;SDS011;25478;42.626;23.320;2022-07-29T03:39:15;15.93;;;12.00;;
39788;SDS011;25478;42.626;23.320;2022-07-29T03:41:44;15.88;;;11.88;;
39788;SDS011;25478;42.626;23.320;2022-07-29T03:44:12;15.27;;;11.77;;
39788;SDS011;25478;42.626;23.320;2022-07-29T03:46:41;16.23;;;11.75;;
39788;SDS011;25478;42.626;23.320;2022-07-29T03:49:09;14.93;;;11.35;;
39788;SDS011;25478;42.626;23.320;2022-07-29T03:51:37;16.45;;;11.68;;
39788;SDS011;25478;42.626;23.320;2022-07-29T03:54:03;15.10;;;11.35;;
39788;SDS011;25478;42.626;23.320;2022-07-29T03:56:30;16.15;;;12.10;;
39788;SDS011;25478;42.626;23.320;2022-07-29T03:58:58;15.98;;;11.18;;
39788;SDS011;25478;42.626;23.320;2022-07-29T04:01:24;14.23;;;10.57;;
39788;SDS011;25478;42.626;23.320;2022-07-29T04:03:50;15.63;;;11.55;;
39788;SDS011;25478;42.626;23.320;2022-07-29T04:06:16;15.85;;;11.57;;
39788;SDS011;25478;42.626;23.320;2022-07-29T04:08:41;15.60;;;11.77;;
39788;SDS011;25478;42.626;23.320;2022-07-29T04:11:07;15.23;;;11.07;;
39788;SDS011;25478;42.626;23.320;2022-07-29T04:13:32;14.82;;;11.43;;
39788;SDS011;25478;42.626;23.320;2022-07-29T04:15:58;17.38;;;11.82;;
39788;SDS011;25478;42.626;23.320;2022-07-29T04:18:23;16.10;;;11.00;;
39788;SDS011;25478;42.626;23.320;2022-07-29T04:20:50;19.10;;;13.05;;
39788;SDS011;25478;42.626;23.320;2022-07-29T04:23:16;15.98;;;12.27;;
39788;SDS011;25478;42.626;23.320;2022-07-29T04:25:42;16.67;;;12.55;;
39788;SDS011;25478;42.626;23.320;2022-07-29T04:28:08;17.70;;;14.18;;
39788;SDS011;25478;42.626;23.320;2022-07-29T04:30:35;19.52;;;13.40;;
39788;SDS011;25478;42.626;23.320;2022-07-29T04:33:02;17.50;;;13.02;;
39788;SDS011;25478;42.626;23.320;2022-07-29T04:35:29;17.48;;;12.45;;
39788;SDS011;25478;42.626;23.320;2022-07-29T04:37:56;15.45;;;11.48;;
39788;SDS011;25478;42.626;23.320;2022-07-29T04:40:21;14.88;;;11.35;;
39788;SDS011;25478;42.626;23.320;2022-07-29T04:42:47;15.98;;;11.25;;
39788;SDS011;25478;42.626;23.320;2022-07-29T04:45:13;14.60;;;10.27;;
39788;SDS011;25478;42.626;23.320;2022-07-29T04:47:39;11.93;;;8.23;;
39788;SDS011;25478;42.626;23.320;2022-07-29T04:50:05;12.95;;;10.13;;
39788;SDS011;25478;42.626;23.320;2022-07-29T04:52:32;12.77;;;10.45;;
39788;SDS011;25478;42.626;23.320;2022-07-29T04:54:57;13.77;;;10.35;;
39788;SDS011;25478;42.626;23.320;2022-07-29T04:57:23;14.35;;;10.88;;
39788;SDS011;25478;42.626;23.320;2022-07-29T04:59:48;16.17;;;11.27;;
39788;SDS011;25478;42.626;23.320;2022-07-29T05:02:14;15.77;;;12.55;;
39788;SDS011;25478;42.626;23.320;2022-07-29T05:04:39;16.52;;;11.73;;
39788;SDS011;25478;42.626;23.320;2022-07-29T05:07:05;17.00;;;12.23;;
39788;SDS011;25478;42.626;23.320;2022-07-29T05:09:30;18.05;;;11.68;;
39788;SDS011;25478;42.626;23.320;2022-07-29T05:11:57;14.75;;;10.85;;
39788;SDS011;25478;42.626;23.320;2022-07-29T05:14:23;14.73;;;10.80;;
39788;SDS011;25478;42.626;23.320;2022-07-29T05:16:48;15.32;;;10.82;;
39788;SDS011;25478;42.626;23.320;2022-07-29T05:19:16;13.77;;;10.02;;
39788;SDS011;25478;42.626;23.320;2022-07-29T05:21:42;16.80;;;9.93;;
39788;SDS011;25478;42.626;23.320;2022-07-29T05:24:09;11.00;;;8.60;;
39788;SDS011;25478;42.626;23.320;2022-07-29T05:26:35;13.15;;;8.65;;
39788;SDS011;25478;42.626;23.320;2022-07-29T05:29:00;12.30;;;8.00;;
39788;SDS011;25478;42.626;23.320;2022-07-29T05:31:26;12.50;;;7.57;;
39788;SDS011;25478;42.626;23.320;2022-07-29T05:33:51;13.48;;;8.70;;
39788;SDS011;25478;42.626;23.320;2022-07-29T05:36:17;12.13;;;7.85;;
39788;SDS011;25478;42.626;23.320;2022-07-29T05:38:42;11.95;;;8.40;;
39788;SDS011;25478;42.626;23.320;2022-07-29T05:41:08;9.38;;;7.35;;
39788;SDS011;25478;42.626;23.320;2022-07-29T05:43:33;11.07;;;7.90;;
39788;SDS011;25478;42.626;23.320;2022-07-29T05:45:59;11.00;;;7.70;;
39788;SDS011;25478;42.626;23.320;2022-07-29T05:48:24;11.50;;;8.35;;
39788;SDS011;25478;42.626;23.320;2022-07-29T05:50:50;11.15;;;8.20;;
39788;SDS011;25478;42.626;23.320;2022-07-29T05:53:15;11.45;;;7.20;;
39788;SDS011;25478;42.626;23.320;2022-07-29T05:55:42;10.65;;;7.53;;
39788;SDS011;25478;42.626;23.320;2022-07-29T05:58:07;10.95;;;7.28;;
39788;SDS011;25478;42.626;23.320;2022-07-29T06:00:33;10.88;;;7.25;;
39788;SDS011;25478;42.626;23.320;2022-07-29T06:02:59;12.07;;;7.75;;
39788;SDS011;25478;42.626;23.320;2022-07-29T06:05:25;9.57;;;7.03;;
39788;SDS011;25478;42.626;23.320;2022-07-29T06:07:50;11.15;;;6.43;;
39788;SDS011;25478;42.626;23.320;2022-07-29T06:10:17;8.40;;;6.80;;
39788;SDS011;25478;42.626;23.320;2022-07-29T06:12:44;10.23;;;6.60;;
39788;SDS011;25478;42.626;23.320;2022-07-29T06:15:09;7.53;;;6.40;;
39788;SDS011;25478;42.626;23.320;2022-07-29T06:17:35;8.90;;;6.47;;
39788;SDS011;25478;42.626;23.320;2022-07-29T06:20:01;11.57;;;6.95;;
39788;SDS011;25478;42.626;23.320;2022-07-29T06:22:27;9.73;;;6.68;;
39788;SDS011;25478;42.626;23.320;2022-07-29T06:24:53;10.30;;;7.30;;
39788;SDS011;25478;42.626;23.320;2022-07-29T06:27:19;9.15;;;7.05;;
39788;SDS011;25478;42.626;23.320;2022-07-29T06:29:45;9.98;;;6.93;;
39788;SDS011;25478;42.626;23.320;2022-07-29T06:32:10;9.80;;;6.60;;
39788;SDS011;25478;42.626;23.320;2022-07-29T06:34:36;10.15;;;6.38;;
39788;SDS011;25478;42.626;23.320;2022-07-29T06:37:08;8.82;;;6.03;;
39788;SDS011;25478;42.626;23.320;2022-07-29T06:39:34;9.18;;;6.45;;
39788;SDS011;25478;42.626;23.320;2022-07-29T06:42:01;10.68;;;6.38;;
39788;SDS011;25478;42.626;23.320;2022-07-29T06:44:27;8.73;;;6.05;;
39788;SDS011;25478;42.626;23.320;2022-07-29T06:46:52;10.38;;;5.80;;
39788;SDS011;25478;42.626;23.320;2022-07-29T06:49:19;9.57;;;6.18;;
39788;SDS011;25478;42.626;23.320;2022-07-29T06:51:45;7.45;;;6.00;;
39788;SDS011;25478;42.626;23.320;2022-07-29T06:54:10;10.02;;;6.53;;
39788;SDS011;25478;42.626;23.320;2022-07-29T06:56:36;9.65;;;5.55;;
39788;SDS011;25478;42.626;23.320;2022-07-29T06:59:03;7.00;;;5.70;;
39788;SDS011;25478;42.626;23.320;2022-07-29T07:01:29;8.55;;;5.97;;
39788;SDS011;25478;42.626;23.320;2022-07-29T07:03:54;11.13;;;6.65;;
39788;SDS011;25478;42.626;23.320;2022-07-29T07:06:21;7.68;;;5.97;;
39788;SDS011;25478;42.626;23.320;2022-07-29T07:08:46;11.38;;;6.20;;
39788;SDS011;25478;42.626;23.320;2022-07-29T07:11:12;7.45;;;6.18;;
39788;SDS011;25478;42.626;23.320;2022-07-29T07:13:37;8.63;;;6.55;;
39788;SDS011;25478;42.626;23.320;2022-07-29T07:16:03;7.93;;;6.30;;
39788;SDS011;25478;42.626;23.320;2022-07-29T07:18:29;7.50;;;5.80;;
39788;SDS011;25478;42.626;23.320;2022-07-29T07:20:55;7.88;;;6.22;;
39788;SDS011;25478;42.626;23.320;2022-07-29T07:23:22;10.80;;;5.88;;
39788;SDS011;25478;42.626;23.320;2022-07-29T07:25:47;8.43;;;5.18;;
39788;SDS011;25478;42.626;23.320;2022-07-29T07:28:13;9.77;;;6.15;;
39788;SDS011;25478;42.626;23.320;2022-07-29T07:30:39;6.82;;;5.00;;
39788;SDS011;25478;42.626;23.320;2022-07-29T07:33:04;7.30;;;5.47;;
39788;SDS011;25478;42.626;23.320;2022-07-29T07:35:30;6.85;;;5.05;;
39788;SDS011;25478;42.626;23.320;2022-07-29T07:37:55;7.57;;;5.22;;
39788;SDS011;25478;42.626;23.320;2022-07-29T07:40:21;6.68;;;5.30;;
39788;SDS011;25478;42.626;23.320;2022-07-29T07:42:47;13.32;;;5.32;;
39788;SDS011;25478;42.626;23.320;2022-07-29T07:45:12;7.80;;;5.25;;
39788;SDS011;25478;42.626;23.320;2022-07-29T07:47:38;6.80;;;5.50;;
39788;SDS011;25478;42.626;23.320;2022-07-29T07:50:05;7.32;;;5.00;;
39788;SDS011;25478;42.626;23.320;2022-07-29T07:52:32;7.50;;;5.15;;
39788;SDS011;25478;42.626;23.320;2022-07-29T07:54:58;7.03;;;5.15;;
39788;SDS011;25478;42.626;23.320;2022-07-29T07:57:24;6.13;;;4.70;;
39788;SDS011;25478;42.626;23.320;2022-07-29T07:59:50;6.72;;;4.50;;
39788;SDS011;25478;42.626;23.320;2022-07-29T08:02:16;6.00;;;4.35;;
39788;SDS011;25478;42.626;23.320;2022-07-29T08:04:41;5.80;;;4.80;;
39788;SDS011;25478;42.626;23.320;2022-07-29T08:07:07;5.45;;;4.50;;
39788;SDS011;25478;42.626;23.320;2022-07-29T08:09:34;4.97;;;4.10;;
39788;SDS011;25478;42.626;23.320;2022-07-29T08:12:00;6.40;;;4.45;;
39788;SDS011;25478;42.626;23.320;2022-07-29T08:14:29;7.00;;;3.97;;
39788;SDS011;25478;42.626;23.320;2022-07-29T08:16:55;6.90;;;5.10;;
39788;SDS011;25478;42.626;23.320;2022-07-29T08:19:20;8.60;;;4.82;;
39788;SDS011;25478;42.626;23.320;2022-07-29T08:21:47;6.88;;;4.63;;
39788;SDS011;25478;42.626;23.320;2022-07-29T08:24:12;7.57;;;4.90;;
39788;SDS011;25478;42.626;23.320;2022-07-29T08:26:56;8.52;;;4.90;;
39788;SDS011;25478;42.626;23.320;2022-07-29T08:29:22;5.50;;;4.65;;
39788;SDS011;25478;42.626;23.320;2022-07-29T08:31:47;7.90;;;4.45;;
39788;SDS011;25478;42.626;23.320;2022-07-29T08:34:13;6.18;;;4.25;;
39788;SDS011;25478;42.626;23.320;2022-07-29T08:36:38;6.50;;;5.15;;
39788;SDS011;25478;42.626;23.320;2022-07-29T08:39:04;8.15;;;4.50;;
39788;SDS011;25478;42.626;23.320;2022-07-29T08:41:30;6.18;;;4.20;;
39788;SDS011;25478;42.626;23.320;2022-07-29T08:43:56;7.78;;;4.47;;
39788;SDS011;25478;42.626;23.320;2022-07-29T08:46:21;6.68;;;4.55;;
39788;SDS011;25478;42.626;23.320;2022-07-29T08:48:47;6.57;;;4.72;;
39788;SDS011;25478;42.626;23.320;2022-07-29T08:51:15;6.53;;;4.50;;
39788;SDS011;25478;42.626;23.320;2022-07-29T08:53:43;8.02;;;5.22;;
39788;SDS011;25478;42.626;23.320;2022-07-29T08:56:12;6.50;;;4.18;;
39788;SDS011;25478;42.626;23.320;2022-07-29T08:58:40;6.97;;;4.50;;
39788;SDS011;25478;42.626;23.320;2022-07-29T09:01:07;6.85;;;4.95;;
39788;SDS011;25478;42.626;23.320;2022-07-29T09:03:34;7.70;;;5.03;;
39788;SDS011;25478;42.626;23.320;2022-07-29T09:06:02;6.60;;;4.80;;
39788;SDS011;25478;42.626;23.320;2022-07-29T09:08:28;5.70;;;4.43;;
39788;SDS011;25478;42.626;23.320;2022-07-29T09:10:55;7.28;;;4.80;;
39788;SDS011;25478;42.626;23.320;2022-07-29T09:13:21;6.30;;;4.57;;
39788;SDS011;25478;42.626;23.320;2022-07-29T09:15:47;6.25;;;5.10;;
39788;SDS011;25478;42.626;23.320;2022-07-29T09:20:57;8.35;;;5.30;;
39788;SDS011;25478;42.626;23.320;2022-07-29T09:23:58;7.32;;;5.00;;
39788;SDS011;25478;42.626;23.320;2022-07-29T09:26:30;6.22;;;4.95;;
39788;SDS011;25478;42.626;23.320;2022-07-29T09:28:57;7.03;;;4.55;;
39788;SDS011;25478;42.626;23.320;2022-07-29T09:31:31;6.20;;;4.65;;
39788;SDS011;25478;42.626;23.320;2022-07-29T09:33:59;5.93;;;5.10;;
39788;SDS011;25478;42.626;23.320;2022-07-29T09:36:25;7.07;;;5.38;;
39788;SDS011;25478;42.626;23.320;2022-07-29T09:38:58;7.18;;;4.85;;
39788;SDS011;25478;42.626;23.320;2022-07-29T09:43:54;5.65;;;5.03;;
39788;SDS011;25478;42.626;23.320;2022-07-29T09:46:23;7.10;;;5.28;;
39788;SDS011;25478;42.626;23.320;2022-07-29T09:49:05;7.03;;;5.05;;
39788;SDS011;25478;42.626;23.320;2022-07-29T09:51:34;8.43;;;5.57;;
39788;SDS011;25478;42.626;23.320;2022-07-29T09:53:59;7.03;;;5.47;;
39788;SDS011;25478;42.626;23.320;2022-07-29T09:56:38;6.72;;;5.35;;
39788;SDS011;25478;42.626;23.320;2022-07-29T09:59:07;6.85;;;5.25;;
39788;SDS011;25478;42.626;23.320;2022-07-29T10:01:34;7.28;;;5.10;;
39788;SDS011;25478;42.626;23.320;2022-07-29T10:04:01;6.88;;;5.18;;
39788;SDS011;25478;42.626;23.320;2022-07-29T10:06:27;7.68;;;5.60;;
39788;SDS011;25478;42.626;23.320;2022-07-29T10:08:52;7.03;;;5.38;;
39788;SDS011;25478;42.626;23.320;2022-07-29T10:11:18;6.25;;;5.22;;
39788;SDS011;25478;42.626;23.320;2022-07-29T10:13:45;9.57;;;5.80;;
39788;SDS011;25478;42.626;23.320;2022-07-29T10:16:12;9.02;;;5.75;;
39788;SDS011;25478;42.626;23.320;2022-07-29T10:18:39;6.47;;;5.05;;
39788;SDS011;25478;42.626;23.320;2022-07-29T10:21:06;7.78;;;5.47;;
39788;SDS011;25478;42.626;23.320;2022-07-29T10:23:32;8.02;;;5.95;;
39788;SDS011;25478;42.626;23.320;2022-07-29T10:25:59;7.43;;;5.45;;
39788;SDS011;25478;42.626;23.320;2022-07-29T10:28:25;7.43;;;5.60;;
39788;SDS011;25478;42.626;23.320;2022-07-29T10:30:52;9.75;;;5.63;;
39788;SDS011;25478;42.626;23.320;2022-07-29T10:39:00;6.60;;;5.70;;
39788;SDS011;25478;42.626;23.320;2022-07-29T10:44:09;6.72;;;5.38;;
39788;SDS011;25478;42.626;23.320;2022-07-29T10:46:41;6.55;;;5.38;;
39788;SDS011;25478;42.626;23.320;2022-07-29T10:49:07;8.05;;;5.47;;
39788;SDS011;25478;42.626;23.320;2022-07-29T10:54:15;6.65;;;5.18;;
39788;SDS011;25478;42.626;23.320;2022-07-29T11:05:17;7.63;;;4.88;;
39788;SDS011;25478;42.626;23.320;2022-07-29T11:10:37;7.30;;;5.20;;
39788;SDS011;25478;42.626;23.320;2022-07-29T11:13:03;8.10;;;5.63;;
39788;SDS011;25478;42.626;23.320;2022-07-29T11:15:29;6.60;;;5.47;;
39788;SDS011;25478;42.626;23.320;2022-07-29T11:18:21;6.90;;;5.38;;
39788;SDS011;25478;42.626;23.320;2022-07-29T11:20:47;6.93;;;5.10;;
39788;SDS011;25478;42.626;23.320;2022-07-29T11:23:25;6.95;;;5.30;;
39788;SDS011;25478;42.626;23.320;2022-07-29T11:28:39;9.82;;;5.05;;
39788;SDS011;25478;42.626;23.320;2022-07-29T11:39:29;6.50;;;5.57;;
39788;SDS011;25478;42.626;23.320;2022-07-29T11:42:33;6.55;;;5.85;;
39788;SDS011;25478;42.626;23.320;2022-07-29T11:44:56;9.65;;;6.00;;
39788;SDS011;25478;42.626;23.320;2022-07-29T11:47:23;6.60;;;5.35;;
39788;SDS011;25478;42.626;23.320;2022-07-29T11:49:50;6.57;;;5.50;;
39788;SDS011;25478;42.626;23.320;2022-07-29T11:52:17;7.80;;;5.43;;
39788;SDS011;25478;42.626;23.320;2022-07-29T11:54:44;8.20;;;5.97;;
39788;SDS011;25478;42.626;23.320;2022-07-29T11:57:12;7.53;;;5.53;;
39788;SDS011;25478;42.626;23.320;2022-07-29T11:59:39;7.45;;;6.25;;
39788;SDS011;25478;42.626;23.320;2022-07-29T12:02:06;6.45;;;5.35;;
39788;SDS011;25478;42.626;23.320;2022-07-29T12:04:32;7.57;;;5.72;;
39788;SDS011;25478;42.626;23.320;2022-07-29T12:06:57;9.00;;;5.63;;
39788;SDS011;25478;42.626;23.320;2022-07-29T12:09:23;7.72;;;5.60;;
39788;SDS011;25478;42.626;23.320;2022-07-29T12:11:55;7.43;;;5.18;;
39788;SDS011;25478;42.626;23.320;2022-07-29T12:14:28;7.03;;;6.00;;
39788;SDS011;25478;42.626;23.320;2022-07-29T12:16:55;8.77;;;6.35;;
39788;SDS011;25478;42.626;23.320;2022-07-29T12:19:21;7.88;;;6.03;;
39788;SDS011;25478;42.626;23.320;2022-07-29T12:21:48;7.13;;;5.90;;
39788;SDS011;25478;42.626;23.320;2022-07-29T12:24:14;7.00;;;5.90;;
39788;SDS011;25478;42.626;23.320;2022-07-29T12:29:42;8.02;;;5.43;;
39788;SDS011;25478;42.626;23.320;2022-07-29T12:32:07;6.75;;;5.85;;
39788;SDS011;25478;42.626;23.320;2022-07-29T12:34:34;8.82;;;5.88;;
39788;SDS011;25478;42.626;23.320;2022-07-29T12:36:59;7.40;;;6.15;;
39788;SDS011;25478;42.626;23.320;2022-07-29T12:39:26;7.22;;;6.15;;
39788;SDS011;25478;42.626;23.320;2022-07-29T12:41:53;5.97;;;5.22;;
39788;SDS011;25478;42.626;23.320;2022-07-29T12:44:19;8.07;;;5.70;;
39788;SDS011;25478;42.626;23.320;2022-07-29T12:46:44;6.40;;;5.60;;
39788;SDS011;25478;42.626;23.320;2022-07-29T12:49:21;7.80;;;6.00;;
39788;SDS011;25478;42.626;23.320;2022-07-29T12:51:47;6.50;;;5.47;;
39788;SDS011;25478;42.626;23.320;2022-07-29T12:54:13;7.20;;;5.65;;
39788;SDS011;25478;42.626;23.320;2022-07-29T12:56:41;7.35;;;5.50;;
39788;SDS011;25478;42.626;23.320;2022-07-29T12:59:18;7.35;;;5.30;;
39788;SDS011;25478;42.626;23.320;2022-07-29T13:01:49;7.95;;;5.45;;
39788;SDS011;25478;42.626;23.320;2022-07-29T13:04:25;6.72;;;5.43;;
39788;SDS011;25478;42.626;23.320;2022-07-29T13:07:02;8.23;;;5.45;;
39788;SDS011;25478;42.626;23.320;2022-07-29T13:09:38;7.25;;;5.40;;
39788;SDS011;25478;42.626;23.320;2022-07-29T13:12:07;7.47;;;5.68;;
39788;SDS011;25478;42.626;23.320;2022-07-29T13:14:45;5.95;;;5.13;;
39788;SDS011;25478;42.626;23.320;2022-07-29T13:17:21;8.40;;;5.90;;
39788;SDS011;25478;42.626;23.320;2022-07-29T13:20:03;6.65;;;5.40;;
39788;SDS011;25478;42.626;23.320;2022-07-29T13:22:31;5.78;;;5.15;;
39788;SDS011;25478;42.626;23.320;2022-07-29T13:24:57;6.40;;;5.50;;
39788;SDS011;25478;42.626;23.320;2022-07-29T13:27:27;7.13;;;5.72;;
39788;SDS011;25478;42.626;23.320;2022-07-29T13:29:55;7.47;;;5.70;;
39788;SDS011;25478;42.626;23.320;2022-07-29T13:32:22;7.35;;;5.20;;
39788;SDS011;25478;42.626;23.320;2022-07-29T13:34:49;6.40;;;5.22;;
39788;SDS011;25478;42.626;23.320;2022-07-29T13:37:15;5.68;;;4.90;;
39788;SDS011;25478;42.626;23.320;2022-07-29T13:39:41;7.13;;;5.68;;
39788;SDS011;25478;42.626;23.320;2022-07-29T13:42:08;6.90;;;5.20;;
39788;SDS011;25478;42.626;23.320;2022-07-29T13:44:33;6.50;;;5.20;;
39788;SDS011;25478;42.626;23.320;2022-07-29T13:46:59;7.30;;;5.18;;
39788;SDS011;25478;42.626;23.320;2022-07-29T13:49:25;7.32;;;5.60;;
39788;SDS011;25478;42.626;23.320;2022-07-29T13:51:51;7.53;;;5.10;;
39788;SDS011;25478;42.626;23.320;2022-07-29T13:54:16;6.30;;;5.45;;
39788;SDS011;25478;42.626;23.320;2022-07-29T13:56:42;7.45;;;5.35;;
39788;SDS011;25478;42.626;23.320;2022-07-29T13:59:07;8.00;;;5.40;;
39788;SDS011;25478;42.626;23.320;2022-07-29T14:01:34;8.13;;;6.00;;
39788;SDS011;25478;42.626;23.320;2022-07-29T14:04:00;6.75;;;5.43;;
39788;SDS011;25478;42.626;23.320;2022-07-29T14:06:25;8.35;;;6.40;;
39788;SDS011;25478;42.626;23.320;2022-07-29T14:08:51;7.70;;;6.10;;
39788;SDS011;25478;42.626;23.320;2022-07-29T14:11:17;7.70;;;5.70;;
39788;SDS011;25478;42.626;23.320;2022-07-29T14:13:42;7.95;;;5.65;;
39788;SDS011;25478;42.626;23.320;2022-07-29T14:16:08;6.78;;;5.43;;
39788;SDS011;25478;42.626;23.320;2022-07-29T14:18:33;6.57;;;5.70;;
39788;SDS011;25478;42.626;23.320;2022-07-29T14:20:59;9.43;;;6.18;;
39788;SDS011;25478;42.626;23.320;2022-07-29T14:23:24;7.15;;;6.25;;
39788;SDS011;25478;42.626;23.320;2022-07-29T14:25:50;6.85;;;5.70;;
39788;SDS011;25478;42.626;23.320;2022-07-29T14:28:15;7.15;;;5.80;;
39788;SDS011;25478;42.626;23.320;2022-07-29T14:30:41;6.70;;;5.80;;
39788;SDS011;25478;42.626;23.320;2022-07-29T14:33:06;9.05;;;6.47;;
39788;SDS011;25478;42.626;23.320;2022-07-29T14:35:33;8.48;;;6.63;;
39788;SDS011;25478;42.626;23.320;2022-07-29T14:37:58;7.70;;;5.97;;
39788;SDS011;25478;42.626;23.320;2022-07-29T14:40:24;9.60;;;5.97;;
39788;SDS011;25478;42.626;23.320;2022-07-29T14:42:50;9.00;;;6.38;;
39788;SDS011;25478;42.626;23.320;2022-07-29T14:45:16;8.48;;;6.20;;
39788;SDS011;25478;42.626;23.320;2022-07-29T14:47:42;9.02;;;6.05;;
39788;SDS011;25478;42.626;23.320;2022-07-29T14:50:07;8.00;;;6.07;;
39788;SDS011;25478;42.626;23.320;2022-07-29T14:52:34;8.75;;;6.18;;
39788;SDS011;25478;42.626;23.320;2022-07-29T14:54:59;7.82;;;6.05;;
39788;SDS011;25478;42.626;23.320;2022-07-29T14:57:24;8.40;;;6.38;;
39788;SDS011;25478;42.626;23.320;2022-07-29T14:59:50;7.65;;;6.65;;
39788;SDS011;25478;42.626;23.320;2022-07-29T15:02:17;9.05;;;6.47;;
39788;SDS011;25478;42.626;23.320;2022-07-29T15:04:42;10.60;;;6.63;;
39788;SDS011;25478;42.626;23.320;2022-07-29T15:07:09;11.63;;;7.70;;
39788;SDS011;25478;42.626;23.320;2022-07-29T15:09:35;7.97;;;6.32;;
39788;SDS011;25478;42.626;23.320;2022-07-29T15:12:00;8.07;;;6.60;;
39788;SDS011;25478;42.626;23.320;2022-07-29T15:14:28;7.75;;;6.22;;
39788;SDS011;25478;42.626;23.320;2022-07-29T15:16:53;8.02;;;6.53;;
39788;SDS011;25478;42.626;23.320;2022-07-29T15:19:19;9.25;;;6.75;;
39788;SDS011;25478;42.626;23.320;2022-07-29T15:21:44;7.85;;;5.78;;
39788;SDS011;25478;42.626;23.320;2022-07-29T15:24:10;8.57;;;6.00;;
39788;SDS011;25478;42.626;23.320;2022-07-29T15:26:35;7.70;;;5.68;;